createdAt,value
2022-11-26T00:02:36.721Z,102283.19
2022-11-26T00:07:54.421Z,102284.03
2022-11-26T00:29:00.831Z,102283.31
2022-11-26T00:34:03.780Z,102285.75
2022-11-26T00:39:10.922Z,102290.31
2022-11-26T00:44:24.386Z,102287.59
2022-11-26T00:49:28.328Z,102300.38
2022-11-26T00:54:31.096Z,102307.06
2022-11-26T00:59:39.333Z,102309.22
2022-11-26T01:04:43.180Z,102314.78
2022-11-26T01:09:49.138Z,102320.19
2022-11-26T01:20:33.412Z,102331.84
2022-11-26T01:25:36.134Z,102334.25
2022-11-26T01:30:39.030Z,102334.09
2022-11-26T01:35:48.055Z,102352.03
2022-11-26T01:41:02.880Z,102343.81
2022-11-26T01:46:15.693Z,102358.75
2022-11-26T02:17:59.740Z,102383.19
2022-11-26T02:23:41.329Z,102382.78
2022-11-26T02:29:09.900Z,102383.47
2022-11-26T02:39:43.993Z,102411.38
2022-11-26T02:44:47.595Z,102408.69
2022-11-26T02:49:52.747Z,102425.03
2022-11-26T02:55:05.154Z,102425.59
2022-11-26T03:00:09.288Z,102431.56
2022-11-26T03:05:16.233Z,102439.56
2022-11-26T03:10:27.489Z,102444.50
2022-11-26T03:15:30.265Z,102432.59
2022-11-26T03:20:32.979Z,102421.03
2022-11-26T03:36:20.202Z,102435.72
2022-11-26T03:41:23.494Z,102455.47
2022-11-26T03:51:47.991Z,102469.56
2022-11-26T03:56:50.993Z,102480.69
2022-11-26T04:01:54.021Z,102486.94
2022-11-26T04:07:03.080Z,102490.63
2022-11-26T04:12:06.595Z,102479.25
2022-11-26T04:22:34.227Z,102483.22
2022-11-26T04:27:37.071Z,102491.63
2022-11-26T04:32:39.875Z,102495.19
2022-11-26T04:37:48.100Z,102495.88
2022-11-26T04:48:11.166Z,102513.88
2022-11-26T04:53:13.948Z,102517.69
2022-11-26T04:58:16.968Z,102517.56
2022-11-26T05:03:25.875Z,102520.09
2022-11-26T05:08:28.787Z,102528.66
2022-11-26T05:13:31.632Z,102538.63
2022-11-26T05:24:00.473Z,102551.31
2022-11-26T05:29:03.364Z,102557.25
2022-11-26T05:34:06.210Z,102559.16
2022-11-26T05:39:14.285Z,102564.41
2022-11-26T05:44:18.024Z,102576.94
2022-11-26T05:54:44.812Z,102570.84
2022-11-26T05:59:49.102Z,102570.53
2022-11-26T06:04:51.932Z,102575.78
2022-11-26T06:10:00.204Z,102582.19
2022-11-26T06:15:03.307Z,102601.12
2022-11-26T06:25:26.880Z,102611.53
2022-11-26T06:30:29.858Z,102624.06
2022-11-26T06:35:33.178Z,102620.91
2022-11-26T06:40:42.732Z,102630.97
2022-11-26T06:45:45.485Z,102638.97
2022-11-26T07:01:25.554Z,102659.22
2022-11-26T07:06:31.060Z,102666.12
2022-11-26T07:11:35.387Z,102685.22
2022-11-26T07:22:05.384Z,102678.00
2022-11-26T07:27:09.654Z,102694.78
2022-11-26T07:32:12.415Z,102694.03
2022-11-26T07:37:20.473Z,102704.00
2022-11-26T07:42:23.183Z,102703.75
2022-11-26T07:47:27.286Z,102714.69
2022-11-26T07:52:36.781Z,102712.97
2022-11-26T07:57:41.528Z,102729.94
2022-11-26T08:08:09.118Z,102733.25
2022-11-26T08:13:12.357Z,102736.25
2022-11-26T08:18:15.233Z,102748.78
2022-11-26T08:28:39.850Z,102755.34
2022-11-26T08:44:19.101Z,102777.62
2022-11-26T08:49:21.870Z,102783.31
2022-11-26T08:54:25.012Z,102790.16
2022-11-26T08:59:36.354Z,102788.16
2022-11-26T09:04:39.289Z,102795.19
2022-11-26T09:09:42.352Z,102802.31
2022-11-26T09:14:50.727Z,102792.19
2022-11-26T09:25:15.865Z,102804.66
2022-11-26T09:35:47.275Z,102804.94
2022-11-26T09:41:00.794Z,102815.19
2022-11-26T09:46:04.849Z,102817.63
2022-11-26T09:51:16.356Z,102823.91
2022-11-26T09:56:26.444Z,102825.47
2022-11-26T10:01:33.879Z,102829.03
2022-11-26T10:06:56.499Z,102837.91
2022-11-26T10:12:11.002Z,102840.06
2022-11-26T10:17:36.368Z,102841.62
2022-11-26T10:22:56.850Z,102837.66
2022-11-26T10:28:02.319Z,102843.53
2022-11-26T10:33:08.585Z,102845.81
2022-11-26T10:38:17.321Z,102846.25
2022-11-26T10:43:22.802Z,102849.53
2022-11-26T10:48:30.388Z,102851.13
2022-11-26T10:59:21.477Z,102868.56
2022-11-26T11:04:30.738Z,102880.66
2022-11-26T11:09:36.627Z,102873.41
2022-11-26T11:20:26.778Z,102879.41
2022-11-26T11:41:57.219Z,102885.28
2022-11-26T11:47:28.618Z,102889.03
2022-11-26T11:58:08.716Z,102895.31
2022-11-26T12:09:14.293Z,102892.94
2022-11-26T12:14:24.908Z,102895.75
2022-11-26T12:19:39.517Z,102888.09
2022-11-26T12:24:52.849Z,102889.38
2022-11-26T12:30:01.976Z,102891.53
2022-11-26T12:51:28.326Z,102888.34
2022-11-26T12:56:38.067Z,102888.63
2022-11-26T13:01:41.319Z,102894.78
2022-11-26T13:12:31.679Z,102887.75
2022-11-26T13:17:44.153Z,102891.94
2022-11-26T13:22:59.578Z,102899.91
2022-11-26T13:28:20.081Z,102897.91
2022-11-26T13:33:47.153Z,102903.19
2022-11-26T13:39:05.673Z,102904.22
2022-11-26T13:49:55.909Z,102907.87
2022-11-26T13:55:02.627Z,102907.63
2022-11-26T14:00:06.650Z,102910.34
2022-11-26T14:05:17.738Z,102916.62
2022-11-26T14:10:46.803Z,102919.22
2022-11-26T14:16:03.083Z,102919.03
2022-11-26T14:26:38.445Z,102920.47
2022-11-26T14:37:03.601Z,102919.47
2022-11-26T14:42:16.143Z,102928.63
2022-11-26T14:47:21.884Z,102918.91
2022-11-26T14:52:29.283Z,102920.75
2022-11-26T14:57:43.450Z,102918.22
2022-11-26T15:08:19.549Z,102935.75
2022-11-26T15:13:29.961Z,102938.50
2022-11-26T15:29:42.932Z,102956.06
2022-11-26T15:40:23.566Z,102960.22
2022-11-26T15:50:59.284Z,102944.06
2022-11-26T15:56:05.342Z,102952.06
2022-11-26T16:01:14.927Z,102947.63
2022-11-26T16:06:45.159Z,102939.63
2022-11-26T16:11:58.656Z,102953.22
2022-11-26T16:17:08.589Z,102953.50
2022-11-26T16:22:25.540Z,102953.62
2022-11-26T16:27:32.656Z,102950.06
2022-11-26T16:32:35.373Z,102961.19
2022-11-26T16:37:45.511Z,102955.91
2022-11-26T16:42:50.489Z,102960.50
2022-11-26T16:47:58.375Z,102964.31
2022-11-26T16:58:34.797Z,102974.19
2022-11-26T17:03:39.526Z,102982.16
2022-11-26T17:08:49.120Z,102991.44
2022-11-26T17:14:00.329Z,102987.88
2022-11-26T17:29:43.742Z,102993.00
2022-11-26T17:34:47.741Z,102998.22
2022-11-26T17:39:50.941Z,103000.13
2022-11-26T17:50:29.784Z,103001.44
2022-11-26T17:55:32.813Z,103007.50
2022-11-26T18:05:57.774Z,103002.53
2022-11-26T18:11:00.786Z,103011.38
2022-11-26T18:16:03.523Z,103000.53
2022-11-26T18:21:13.969Z,102999.66
2022-11-26T18:31:40.759Z,102997.25
2022-11-26T18:42:36.094Z,102998.81
2022-11-26T18:47:32.527Z,103003.94
2022-11-26T18:52:36.183Z,103002.94
2022-11-26T18:57:49.496Z,103002.09
2022-11-26T19:08:14.904Z,102997.56
2022-11-26T19:13:17.845Z,102985.41
2022-11-26T19:18:20.610Z,102991.69
2022-11-26T19:23:28.679Z,102994.53
2022-11-26T19:28:31.455Z,102990.66
2022-11-26T19:33:34.821Z,102991.56
2022-11-26T19:54:48.105Z,103004.03
2022-11-26T19:59:53.768Z,103001.88
2022-11-26T20:04:58.513Z,103003.72
2022-11-26T20:15:29.426Z,103003.91
2022-11-26T20:20:34.186Z,103006.28
2022-11-26T20:25:40.242Z,102998.31
2022-11-26T20:30:49.802Z,102996.59
2022-11-26T20:35:52.594Z,102999.16
2022-11-26T20:40:55.372Z,102991.88
2022-11-26T20:46:09.018Z,102991.03
2022-11-26T20:51:13.885Z,102988.16
2022-11-26T20:56:17.577Z,102989.31
2022-11-26T21:12:12.582Z,103007.59
2022-11-26T21:22:36.788Z,103003.16
2022-11-26T21:27:42.097Z,103009.16
2022-11-26T21:32:45.787Z,103016.44
2022-11-26T21:43:17.165Z,103010.44
2022-11-26T21:53:40.593Z,103005.00
2022-11-26T21:58:44.726Z,103014.56
2022-11-26T22:03:50.876Z,103015.44
2022-11-26T22:08:59.422Z,103013.72
2022-11-26T22:14:03.227Z,103012.97
2022-11-26T22:35:00.943Z,102996.28
2022-11-26T22:40:03.766Z,102994.16
2022-11-26T22:50:28.151Z,103002.44
2022-11-26T22:55:31.092Z,102995.72
2022-11-26T23:06:13.112Z,102999.47
2022-11-26T23:11:18.560Z,103000.16
2022-11-26T23:16:25.411Z,102995.87
2022-11-26T23:21:36.114Z,102985.84
2022-11-26T23:26:41.589Z,102990.28
2022-11-26T23:31:45.627Z,102990.44
2022-11-26T23:36:53.768Z,102988.56
2022-11-26T23:47:22.911Z,102983.47
2022-11-26T23:52:25.805Z,102991.28
2022-11-26T23:57:29.534Z,102989.59
